Airfield :
LOGIN :

Register | Disclaimer

   EN    FR    IT 

 










Legend :    VFR   Marginal VFR   IFR   Intensive IFR   Very Intensive IFR
Visi :
Ceiling :
>= 8 km
>= 3000ft
5 to 8 km
1000 to 3000 ft
1500m to 5 km
500 to 1000 ft
800 to 1500m
200 to 500 ft
< 800m
< 200 ft
Symbols :   Thunderstorms  Fog  Heavy snow  Heavy precipitations  Wind > 20 kt
SIGMETs :     Misc.  Thunderstorms  Icing  Turbulence  Mountain Waves  Volcanic Ashes






- Airport Elevation : 399 ft
- IATA code : KIV


LUKK - Chisinau Int.

CURRENT METAR :
  • 282130Z AUTO 35010KT 9999 OVC011/// 13/12 Q1009 R26/290152 TEMPO BKN008

EXPIRED METARs :
  • 282100Z 35010KT 9999 OVC011 13/12 Q1009 R26/290152 TEMPO BKN008
  • 282030Z 35010KT 9999 -RA SCT007 BKN012 OVC021 13/12 Q1009 R26/290152 TEMPO BKN008
  • 282000Z 35010KT 9999 -RA SCT008 BKN014 OVC023 13/12 Q1009 R26/290152 TEMPO BKN008
  • 281930Z 35012KT 9999 -RA SCT011 BKN026 OVC030 13/12 Q1009 R26/290152 NOSIG
  • 281900Z 35012KT 8000 -SHRA SCT010 BKN015CB OVC019 13/12 Q1009 R26/290152 NOSIG

TAF TAF LUKK
Valid from the 28 at 18:00 until the 29 at 18:00 UTC


281720Z 2818/2918 31012KT 9999 BKN012CB
TEMPO 2818/2824 4000 SHRA BKN006 BKN010CB
BECMG 2900/2902 BKN015
BECMG 2906/2908 BKN020CB
TEMPO 2909/2918 3000 SHRA BKN010 BKN015CB



MET'MAP, your aeronautical weather chart ! - Copyright ORBIFLY December 2007 - Disclaimer

ORBIFLY MET'MAP TEAM :

Programming & Development : Alexandra Zaïnal
Concept & original design : Baudouin d'Aumeries
Assistance for programming : Marc-Olivier Méhu
Technical & hardware support : Manuel Goepfert

Contact : metmap@orbifly.com




SOURCES & CREDITS :

   NOAA